createdAt,value
2024-01-08T00:00:48.408Z,497.00
2024-01-08T00:01:48.393Z,496.00
2024-01-08T00:02:48.352Z,496.00
2024-01-08T00:03:48.460Z,496.00
2024-01-08T00:04:48.382Z,498.00
2024-01-08T00:05:48.377Z,498.00
2024-01-08T00:06:48.320Z,497.00
2024-01-08T00:07:48.423Z,496.00
2024-01-08T00:08:48.343Z,496.00
2024-01-08T00:09:48.324Z,496.00
2024-01-08T00:10:48.337Z,496.00
2024-01-08T00:11:48.333Z,496.00
2024-01-08T00:12:48.335Z,497.00
2024-01-08T00:13:48.384Z,494.00
2024-01-08T00:14:48.333Z,492.00
2024-01-08T00:15:48.339Z,490.00
2024-01-08T00:16:48.431Z,493.00
2024-01-08T00:17:48.384Z,494.00
2024-01-08T00:18:48.410Z,495.00
2024-01-08T00:19:48.399Z,494.00
2024-01-08T00:20:48.346Z,494.00
2024-01-08T00:21:48.350Z,496.00
2024-01-08T00:22:48.382Z,494.00
2024-01-08T00:23:48.377Z,497.00
2024-01-08T00:24:48.351Z,497.00
2024-01-08T00:25:48.358Z,497.00
2024-01-08T00:26:48.370Z,497.00
2024-01-08T00:27:48.520Z,498.00
2024-01-08T00:28:48.351Z,497.00
2024-01-08T00:29:48.334Z,496.00
2024-01-08T00:30:48.349Z,496.00
2024-01-08T00:31:48.369Z,495.00
2024-01-08T00:32:49.147Z,496.00
2024-01-08T00:33:48.426Z,496.00
2024-01-08T00:34:48.312Z,497.00
2024-01-08T00:35:48.328Z,498.00
2024-01-08T00:36:48.336Z,499.00
2024-01-08T00:37:48.365Z,497.00
2024-01-08T00:38:48.325Z,497.00
2024-01-08T00:39:48.356Z,496.00
2024-01-08T00:40:48.435Z,496.00
2024-01-08T00:41:48.306Z,494.00
2024-01-08T00:42:48.947Z,491.00
2024-01-08T00:43:48.418Z,488.00
2024-01-08T00:44:48.350Z,491.00
2024-01-08T00:45:48.295Z,492.00
2024-01-08T00:46:48.326Z,494.00
2024-01-08T00:47:49.128Z,495.00
2024-01-08T00:48:48.301Z,494.00
2024-01-08T00:49:48.345Z,492.00
2024-01-08T00:50:48.322Z,492.00
2024-01-08T00:51:48.294Z,492.00
2024-01-08T00:52:48.727Z,491.00
2024-01-08T00:53:48.296Z,491.00
2024-01-08T00:54:48.329Z,493.00
2024-01-08T00:55:48.370Z,492.00
2024-01-08T00:56:48.369Z,493.00
2024-01-08T00:57:48.583Z,493.00
2024-01-08T00:58:48.380Z,492.00
2024-01-08T00:59:48.360Z,491.00
2024-01-08T01:00:48.348Z,491.00
2024-01-08T01:01:48.381Z,492.00
2024-01-08T01:02:49.248Z,490.00
2024-01-08T01:03:48.517Z,489.00
2024-01-08T01:04:48.488Z,487.00
2024-01-08T01:05:48.419Z,487.00
2024-01-08T01:06:48.383Z,488.00
2024-01-08T01:07:48.374Z,487.00
2024-01-08T01:08:48.368Z,487.00
2024-01-08T01:09:48.356Z,486.00
2024-01-08T01:10:48.386Z,484.00
2024-01-08T01:11:48.372Z,483.00
2024-01-08T01:12:48.389Z,483.00
2024-01-08T01:13:48.385Z,485.00
2024-01-08T01:14:48.353Z,487.00
2024-01-08T01:15:48.391Z,485.00
2024-01-08T01:16:48.387Z,484.00
2024-01-08T01:17:48.633Z,485.00
2024-01-08T01:18:48.418Z,486.00
2024-01-08T01:19:48.365Z,484.00
2024-01-08T01:20:48.359Z,486.00
2024-01-08T01:21:48.428Z,487.00
2024-01-08T01:22:48.412Z,491.00
2024-01-08T01:23:48.366Z,491.00
2024-01-08T01:24:48.356Z,492.00
2024-01-08T01:25:48.401Z,491.00
2024-01-08T01:26:48.348Z,491.00
2024-01-08T01:27:48.362Z,491.00
2024-01-08T01:28:48.416Z,492.00
2024-01-08T01:29:48.354Z,491.00
2024-01-08T01:30:48.381Z,491.00
2024-01-08T01:31:48.410Z,493.00
2024-01-08T01:32:48.494Z,494.00
2024-01-08T01:33:48.460Z,493.00
2024-01-08T01:34:48.407Z,494.00
2024-01-08T01:35:48.376Z,494.00
2024-01-08T01:36:48.405Z,494.00
2024-01-08T01:37:48.416Z,491.00
2024-01-08T01:38:48.383Z,493.00
2024-01-08T01:39:48.415Z,493.00
2024-01-08T01:40:48.466Z,490.00
2024-01-08T01:41:48.416Z,489.00
2024-01-08T01:42:48.457Z,490.00
2024-01-08T01:43:48.528Z,490.00
2024-01-08T01:44:48.521Z,489.00
2024-01-08T01:45:48.513Z,489.00
2024-01-08T01:46:48.593Z,490.00
2024-01-08T01:47:48.624Z,487.00
2024-01-08T01:48:48.566Z,485.00
2024-01-08T01:49:48.563Z,485.00
2024-01-08T01:50:48.512Z,484.00
2024-01-08T01:51:48.516Z,487.00
2024-01-08T01:52:48.540Z,489.00
2024-01-08T01:53:48.527Z,488.00
2024-01-08T01:54:48.512Z,488.00
2024-01-08T01:55:48.562Z,489.00
2024-01-08T01:56:48.534Z,492.00
2024-01-08T01:57:48.513Z,490.00
2024-01-08T01:58:48.585Z,488.00
2024-01-08T01:59:48.513Z,487.00
2024-01-08T02:00:48.599Z,487.00
2024-01-08T02:01:48.562Z,486.00
2024-01-08T02:02:48.787Z,488.00
2024-01-08T02:03:48.631Z,488.00
2024-01-08T02:04:48.622Z,487.00
2024-01-08T02:05:48.647Z,487.00
2024-01-08T02:06:48.511Z,483.00
2024-01-08T02:07:48.628Z,485.00
2024-01-08T02:08:48.527Z,485.00
2024-01-08T02:09:48.517Z,485.00
2024-01-08T02:10:48.558Z,483.00
2024-01-08T02:11:48.530Z,484.00
2024-01-08T02:12:48.533Z,485.00
2024-01-08T02:13:48.561Z,485.00
2024-01-08T02:14:48.545Z,485.00
2024-01-08T02:15:48.548Z,487.00
2024-01-08T02:16:48.608Z,486.00
2024-01-08T02:17:48.632Z,485.00
2024-01-08T02:18:48.616Z,488.00
2024-01-08T02:19:48.577Z,488.00
2024-01-08T02:20:48.545Z,489.00
2024-01-08T02:21:48.561Z,489.00
2024-01-08T02:22:48.626Z,489.00
2024-01-08T02:23:48.562Z,492.00
2024-01-08T02:24:48.549Z,493.00
2024-01-08T02:25:48.584Z,494.00
2024-01-08T02:26:48.577Z,496.00
2024-01-08T02:27:48.617Z,499.00
2024-01-08T02:28:48.666Z,500.00
2024-01-08T02:29:48.580Z,500.00
2024-01-08T02:30:48.651Z,500.00
2024-01-08T02:31:48.666Z,499.00
2024-01-08T02:32:48.723Z,497.00
2024-01-08T02:33:48.587Z,497.00
2024-01-08T02:34:48.662Z,496.00
2024-01-08T02:35:48.660Z,495.00
2024-01-08T02:36:48.586Z,495.00
2024-01-08T02:37:48.757Z,494.00
2024-01-08T02:38:48.613Z,492.00
2024-01-08T02:39:48.609Z,491.00
2024-01-08T02:40:48.689Z,491.00
2024-01-08T02:41:48.622Z,492.00
2024-01-08T02:42:49.102Z,491.00
2024-01-08T02:43:48.653Z,488.00
2024-01-08T02:44:48.622Z,489.00
2024-01-08T02:45:48.634Z,491.00
2024-01-08T02:46:48.724Z,496.00
2024-01-08T02:47:48.781Z,498.00
2024-01-08T02:48:48.817Z,498.00
2024-01-08T02:49:48.771Z,497.00
2024-01-08T02:50:48.757Z,496.00
2024-01-08T02:51:48.824Z,495.00
2024-01-08T02:52:48.786Z,492.00
2024-01-08T02:53:48.768Z,491.00
2024-01-08T02:54:48.792Z,490.00
2024-01-08T02:55:48.854Z,491.00
2024-01-08T02:56:48.833Z,492.00
2024-01-08T02:57:48.783Z,494.00
2024-01-08T02:58:48.831Z,493.00
2024-01-08T02:59:48.785Z,493.00
2024-01-08T03:00:48.794Z,493.00
2024-01-08T03:01:48.954Z,493.00
2024-01-08T03:02:48.772Z,493.00
2024-01-08T03:03:48.812Z,493.00
2024-01-08T03:04:48.842Z,493.00
2024-01-08T03:05:48.816Z,492.00
2024-01-08T03:06:48.833Z,492.00
2024-01-08T03:07:48.795Z,492.00
2024-01-08T03:08:48.748Z,493.00
2024-01-08T03:09:48.738Z,492.00
2024-01-08T03:10:48.825Z,491.00
2024-01-08T03:11:48.740Z,490.00
2024-01-08T03:12:48.726Z,491.00
2024-01-08T03:13:48.724Z,490.00
2024-01-08T03:14:48.729Z,491.00
2024-01-08T03:15:48.750Z,488.00
2024-01-08T03:16:48.748Z,488.00
2024-01-08T03:17:53.556Z,490.00
2024-01-08T03:18:48.809Z,488.00
2024-01-08T03:19:48.726Z,487.00
2024-01-08T03:20:48.696Z,488.00
2024-01-08T03:21:48.698Z,488.00
2024-01-08T03:22:48.718Z,486.00
2024-01-08T03:23:48.802Z,486.00
2024-01-08T03:24:48.690Z,486.00
2024-01-08T03:25:48.774Z,488.00
2024-01-08T03:26:48.702Z,489.00
2024-01-08T03:27:48.720Z,492.00
2024-01-08T03:28:48.792Z,493.00
2024-01-08T03:29:48.696Z,491.00
2024-01-08T03:30:48.726Z,492.00
2024-01-08T03:31:48.705Z,491.00
2024-01-08T03:32:49.793Z,489.00
2024-01-08T03:33:48.700Z,488.00
2024-01-08T03:34:48.764Z,489.00
2024-01-08T03:35:48.669Z,490.00
2024-01-08T03:36:48.677Z,489.00
2024-01-08T03:37:59.313Z,489.00
2024-01-08T03:38:48.671Z,493.00
2024-01-08T03:39:48.692Z,495.00
2024-01-08T03:40:48.785Z,497.00
2024-01-08T03:41:48.684Z,499.00
2024-01-08T03:43:04.860Z,496.00
2024-01-08T03:43:48.760Z,496.00
2024-01-08T03:44:48.678Z,496.00
2024-01-08T03:45:48.666Z,495.00
2024-01-08T03:46:48.926Z,494.00
2024-01-08T03:52:29.229Z,495.00
2024-01-08T03:52:48.682Z,495.00
2024-01-08T03:53:48.684Z,491.00
2024-01-08T03:54:48.668Z,491.00
2024-01-08T03:55:48.690Z,493.00
2024-01-08T03:56:48.757Z,493.00
2024-01-08T03:57:48.675Z,493.00
2024-01-08T03:58:48.692Z,493.00
2024-01-08T03:59:48.647Z,495.00
2024-01-08T04:00:48.715Z,494.00
2024-01-08T04:01:48.778Z,493.00
2024-01-08T04:02:49.023Z,491.00
2024-01-08T04:03:48.764Z,492.00
2024-01-08T04:04:48.696Z,491.00
2024-01-08T04:05:48.793Z,493.00
2024-01-08T04:06:48.717Z,495.00
2024-01-08T04:07:50.708Z,496.00
2024-01-08T04:08:48.702Z,495.00
2024-01-08T04:09:48.691Z,496.00
2024-01-08T04:10:48.672Z,495.00
2024-01-08T04:11:48.678Z,494.00
2024-01-08T04:12:48.697Z,494.00
2024-01-08T04:13:48.717Z,496.00
2024-01-08T04:14:48.712Z,497.00
2024-01-08T04:15:48.687Z,498.00
2024-01-08T04:16:48.693Z,497.00
2024-01-08T04:17:48.750Z,496.00
2024-01-08T04:18:48.701Z,497.00
2024-01-08T04:19:48.661Z,497.00
2024-01-08T04:20:48.649Z,497.00
2024-01-08T04:21:50.084Z,497.00
2024-01-08T04:22:48.674Z,493.00
2024-01-08T04:23:48.671Z,494.00
2024-01-08T04:24:48.663Z,491.00
2024-01-08T04:25:48.658Z,493.00
2024-01-08T04:26:48.667Z,492.00
2024-01-08T04:27:48.663Z,494.00
2024-01-08T04:28:48.642Z,492.00
2024-01-08T04:29:48.635Z,492.00
2024-01-08T04:30:48.685Z,492.00
2024-01-08T04:31:48.693Z,492.00
2024-01-08T04:32:48.768Z,491.00
2024-01-08T04:33:48.753Z,490.00
2024-01-08T04:34:48.615Z,491.00
2024-01-08T04:35:48.623Z,495.00
2024-01-08T04:36:48.621Z,499.00
2024-01-08T04:37:48.596Z,497.00
2024-01-08T04:38:48.585Z,500.00
2024-01-08T04:39:48.591Z,499.00
2024-01-08T04:40:48.590Z,496.00
2024-01-08T04:41:48.576Z,496.00
2024-01-08T04:42:50.082Z,495.00
2024-01-08T04:43:48.818Z,494.00
2024-01-08T04:44:48.823Z,496.00
2024-01-08T04:45:48.829Z,496.00
2024-01-08T04:49:11.287Z,495.00
2024-01-08T04:49:56.167Z,493.00
2024-01-08T04:50:56.177Z,492.00
2024-01-08T04:51:56.192Z,493.00
2024-01-08T04:52:56.254Z,492.00
2024-01-08T04:53:56.218Z,494.00
2024-01-08T04:54:56.243Z,495.00
2024-01-08T04:55:56.274Z,496.00
2024-01-08T04:56:56.267Z,498.00
2024-01-08T04:57:56.280Z,497.00
2024-01-08T04:58:56.380Z,494.00
2024-01-08T04:59:56.299Z,490.00
2024-01-08T05:00:56.311Z,492.00
2024-01-08T05:01:56.341Z,491.00
2024-01-08T05:02:56.393Z,492.00
2024-01-08T05:03:56.354Z,494.00
2024-01-08T05:04:56.373Z,495.00
2024-01-08T05:05:56.417Z,494.00
2024-01-08T05:06:56.381Z,495.00
2024-01-08T05:07:56.421Z,493.00
2024-01-08T05:08:56.403Z,492.00
2024-01-08T05:09:56.433Z,494.00
2024-01-08T05:10:56.435Z,496.00
2024-01-08T05:11:56.441Z,496.00
2024-01-08T05:12:56.468Z,497.00
2024-01-08T05:13:56.486Z,495.00
2024-01-08T05:14:56.491Z,497.00
2024-01-08T05:15:56.494Z,496.00
2024-01-08T05:16:56.521Z,497.00
2024-01-08T05:17:56.733Z,496.00
2024-01-08T05:18:56.611Z,496.00
2024-01-08T05:19:56.576Z,496.00
2024-01-08T05:20:56.562Z,494.00
2024-01-08T05:21:56.592Z,493.00
2024-01-08T05:22:56.602Z,492.00
2024-01-08T05:23:56.616Z,492.00
2024-01-08T05:24:56.622Z,492.00
2024-01-08T05:25:56.653Z,493.00
2024-01-08T05:26:56.656Z,494.00
2024-01-08T05:27:56.681Z,497.00
2024-01-08T05:28:56.703Z,498.00
2024-01-08T05:29:56.726Z,498.00
2024-01-08T05:30:56.831Z,496.00
2024-01-08T05:31:56.776Z,492.00
2024-01-08T05:32:56.835Z,492.00
2024-01-08T05:33:56.798Z,492.00
2024-01-08T05:34:56.833Z,492.00
2024-01-08T05:35:56.827Z,493.00
2024-01-08T05:36:56.846Z,494.00
2024-01-08T05:37:56.885Z,496.00
2024-01-08T05:38:56.892Z,494.00
2024-01-08T05:39:56.909Z,494.00
2024-01-08T05:40:57.276Z,497.00
2024-01-08T05:41:56.934Z,498.00
2024-01-08T05:42:56.970Z,497.00
2024-01-08T05:43:57.052Z,498.00
2024-01-08T05:44:57.007Z,501.00
2024-01-08T05:45:57.002Z,502.00
2024-01-08T05:46:57.043Z,501.00
2024-01-08T05:47:57.254Z,500.00
2024-01-08T05:48:57.135Z,498.00
2024-01-08T05:49:57.087Z,499.00
2024-01-08T05:50:57.091Z,501.00
2024-01-08T05:51:57.085Z,501.00
2024-01-08T05:52:57.181Z,501.00
2024-01-08T05:53:57.169Z,500.00
2024-01-08T05:54:57.151Z,500.00
2024-01-08T05:55:57.161Z,499.00
2024-01-08T05:56:57.174Z,498.00
2024-01-08T05:57:57.193Z,499.00
2024-01-08T05:58:57.207Z,497.00
2024-01-08T05:59:57.216Z,499.00
2024-01-08T06:00:57.281Z,497.00
2024-01-08T06:01:57.429Z,499.00
2024-01-08T06:02:57.285Z,502.00
2024-01-08T06:03:57.342Z,504.00
2024-01-08T06:04:57.311Z,504.00
2024-01-08T06:05:57.409Z,504.00
2024-01-08T06:06:57.398Z,503.00
2024-01-08T06:07:57.358Z,501.00
2024-01-08T06:08:57.350Z,500.00
2024-01-08T06:09:57.379Z,499.00
2024-01-08T06:10:57.433Z,500.00
2024-01-08T06:11:57.405Z,501.00
2024-01-08T06:12:57.436Z,500.00
2024-01-08T06:13:57.591Z,502.00
2024-01-08T06:14:57.673Z,504.00
2024-01-08T06:15:57.538Z,503.00
2024-01-08T06:16:57.574Z,504.00
2024-01-08T06:18:01.265Z,504.00
2024-01-08T06:18:57.824Z,502.00
2024-01-08T06:19:57.619Z,503.00
2024-01-08T06:20:57.619Z,502.00
2024-01-08T06:21:57.674Z,502.00
2024-01-08T06:22:57.697Z,500.00
2024-01-08T06:23:58.270Z,494.00
2024-01-08T06:24:57.847Z,492.00
2024-01-08T06:25:57.930Z,495.00
2024-01-08T06:26:57.945Z,494.00
2024-01-08T06:27:57.999Z,496.00
2024-01-08T06:28:58.118Z,497.00
2024-01-08T06:29:58.139Z,497.00
2024-01-08T06:30:58.303Z,499.00
2024-01-08T06:31:58.451Z,500.00
2024-01-08T06:32:59.100Z,498.00
2024-01-08T06:33:59.405Z,498.00
2024-01-08T06:34:58.483Z,500.00
2024-01-08T06:35:58.499Z,502.00
2024-01-08T06:36:58.637Z,501.00
2024-01-08T06:37:58.682Z,500.00
2024-01-08T06:38:59.712Z,499.00
2024-01-08T06:39:58.962Z,500.00
2024-01-08T06:40:58.889Z,497.00
2024-01-08T06:41:58.902Z,496.00
2024-01-08T06:43:01.591Z,496.00
2024-01-08T06:44:01.937Z,497.00
2024-01-08T06:44:59.729Z,497.00
2024-01-08T06:45:58.999Z,497.00
2024-01-08T06:46:59.048Z,500.00
2024-01-08T06:48:01.065Z,501.00
2024-01-08T06:48:59.106Z,503.00
2024-01-08T06:49:59.357Z,521.00
2024-01-08T06:50:59.090Z,530.00
2024-01-08T06:51:59.056Z,536.00
2024-01-08T06:52:59.158Z,542.00
2024-01-08T06:53:59.095Z,547.00
2024-01-08T06:54:59.126Z,552.00
2024-01-08T06:55:59.161Z,557.00
2024-01-08T06:56:59.229Z,561.00
2024-01-08T06:57:59.319Z,569.00
2024-01-08T06:58:59.424Z,575.00
2024-01-08T06:59:59.499Z,583.00
2024-01-08T07:00:59.557Z,594.00
2024-01-08T07:01:59.651Z,602.00
2024-01-08T07:02:59.616Z,610.00
2024-01-08T07:03:59.608Z,617.00
2024-01-08T07:04:59.669Z,621.00
2024-01-08T07:05:59.822Z,624.00
2024-01-08T07:06:59.640Z,625.00
2024-01-08T07:07:59.677Z,630.00
2024-01-08T07:08:59.646Z,639.00
2024-01-08T07:09:59.647Z,650.00
2024-01-08T07:10:59.716Z,660.00
2024-01-08T07:11:59.718Z,663.00
2024-01-08T07:12:59.813Z,667.00
2024-01-08T07:13:59.795Z,672.00
2024-01-08T07:14:59.715Z,676.00
2024-01-08T07:15:59.788Z,680.00
2024-01-08T07:16:59.829Z,686.00
2024-01-08T07:18:00.312Z,689.00
2024-01-08T07:18:59.894Z,696.00
2024-01-08T07:19:59.990Z,701.00
2024-01-08T07:20:59.959Z,707.00
2024-01-08T07:21:59.896Z,711.00
2024-01-08T07:22:59.932Z,720.00
2024-01-08T07:23:59.899Z,722.00
2024-01-08T07:24:59.866Z,726.00
2024-01-08T07:25:59.883Z,730.00
2024-01-08T07:26:59.884Z,737.00
2024-01-08T07:27:59.919Z,751.00
2024-01-08T07:28:59.926Z,759.00
2024-01-08T07:29:59.924Z,761.00
2024-01-08T07:30:59.988Z,763.00
2024-01-08T07:32:00.073Z,766.00
2024-01-08T07:33:00.135Z,770.00
2024-01-08T07:34:00.134Z,774.00
2024-01-08T07:34:59.984Z,776.00
2024-01-08T07:35:59.951Z,785.00
2024-01-08T07:36:59.967Z,791.00
2024-01-08T07:38:00.071Z,793.00
2024-01-08T07:39:00.129Z,796.00
2024-01-08T07:40:00.050Z,801.00
2024-01-08T07:41:00.169Z,806.00
2024-01-08T07:42:00.005Z,812.00
2024-01-08T07:43:00.000Z,816.00
2024-01-08T07:44:00.091Z,823.00
2024-01-08T07:45:00.088Z,835.00
2024-01-08T07:46:00.101Z,840.00
2024-01-08T07:47:00.034Z,842.00
2024-01-08T07:48:00.451Z,834.00
2024-01-08T07:49:00.236Z,833.00
2024-01-08T07:50:00.426Z,838.00
2024-01-08T07:51:00.300Z,839.00
2024-01-08T07:52:00.393Z,837.00
2024-01-08T07:53:00.417Z,838.00
2024-01-08T07:54:00.450Z,837.00
2024-01-08T07:55:00.618Z,837.00
2024-01-08T07:56:00.661Z,841.00
2024-01-08T07:57:02.986Z,843.00
2024-01-08T07:58:00.592Z,845.00
2024-01-08T07:59:00.706Z,845.00
2024-01-08T08:00:00.611Z,845.00
2024-01-08T08:01:00.602Z,847.00
2024-01-08T08:02:01.051Z,848.00
2024-01-08T08:03:00.924Z,849.00
2024-01-08T08:04:03.289Z,849.00
2024-01-08T08:05:00.801Z,852.00
2024-01-08T08:06:00.752Z,850.00
2024-01-08T08:07:00.766Z,850.00
2024-01-08T08:08:00.925Z,848.00
2024-01-08T08:09:00.821Z,846.00
2024-01-08T08:10:00.879Z,849.00
2024-01-08T08:11:00.940Z,848.00
2024-01-08T08:12:00.621Z,849.00
2024-01-08T08:13:00.657Z,852.00
2024-01-08T08:14:00.714Z,851.00
2024-01-08T08:15:00.659Z,847.00
2024-01-08T08:16:00.641Z,849.00
2024-01-08T08:17:00.740Z,849.00
2024-01-08T08:18:04.136Z,849.00
2024-01-08T08:19:00.820Z,845.00
2024-01-08T08:20:00.804Z,844.00
2024-01-08T08:21:00.720Z,846.00
2024-01-08T08:22:00.701Z,844.00
2024-01-08T08:23:01.128Z,843.00
2024-01-08T08:24:00.882Z,848.00
2024-01-08T08:25:00.760Z,850.00
2024-01-08T08:26:00.720Z,848.00
2024-01-08T08:27:00.824Z,851.00
2024-01-08T08:28:00.648Z,856.00
2024-01-08T08:29:00.726Z,859.00
2024-01-08T08:30:00.737Z,861.00
2024-01-08T08:31:00.890Z,860.00
2024-01-08T08:32:02.161Z,861.00
2024-01-08T08:33:00.975Z,864.00
2024-01-08T08:34:00.811Z,867.00
2024-01-08T08:35:00.804Z,867.00
2024-01-08T08:36:00.826Z,872.00
2024-01-08T08:37:03.964Z,875.00
2024-01-08T08:38:00.788Z,881.00
2024-01-08T08:39:00.849Z,881.00
2024-01-08T08:40:02.413Z,940.00
2024-01-08T08:41:00.856Z,910.00
2024-01-08T08:42:00.790Z,903.00
2024-01-08T08:43:00.981Z,905.00
2024-01-08T08:44:00.825Z,920.00
2024-01-08T08:45:00.904Z,934.00
2024-01-08T08:46:03.226Z,935.00
2024-01-08T08:47:00.781Z,949.00
2024-01-08T08:48:01.001Z,952.00
2024-01-08T08:49:00.878Z,960.00
2024-01-08T08:50:00.842Z,975.00
2024-01-08T08:51:00.850Z,994.00
2024-01-08T08:52:00.927Z,1005.00
2024-01-08T08:53:00.882Z,1013.00
2024-01-08T08:54:00.863Z,1020.00
2024-01-08T08:55:00.821Z,1026.00
2024-01-08T08:56:00.916Z,1035.00
2024-01-08T08:57:00.858Z,1055.00
2024-01-08T08:58:00.860Z,1059.00
2024-01-08T08:59:00.872Z,1072.00
2024-01-08T09:00:00.839Z,1085.00
2024-01-08T09:01:00.940Z,1096.00
2024-01-08T09:02:01.039Z,1103.00
2024-01-08T09:03:01.002Z,1111.00
2024-01-08T09:04:01.130Z,1118.00
2024-01-08T09:05:01.410Z,1133.00
2024-01-08T09:06:01.317Z,1147.00
2024-01-08T09:07:01.472Z,1161.00
2024-01-08T09:08:01.261Z,1172.00
2024-01-08T09:09:01.284Z,1179.00
2024-01-08T09:10:01.349Z,1184.00
2024-01-08T09:11:01.370Z,1190.00
2024-01-08T09:12:01.351Z,1201.00
2024-01-08T09:13:01.333Z,1204.00
2024-01-08T09:14:01.507Z,1227.00
2024-01-08T09:15:01.349Z,1233.00
2024-01-08T09:16:01.376Z,1219.00
2024-01-08T09:17:01.353Z,1222.00
2024-01-08T09:18:01.538Z,1221.00
2024-01-08T09:19:01.485Z,1215.00
2024-01-08T09:20:01.384Z,1209.00
2024-01-08T09:21:08.673Z,1220.00
2024-01-08T09:22:08.697Z,1210.00
2024-01-08T09:23:09.743Z,1231.00
2024-01-08T09:24:08.747Z,1234.00
2024-01-08T09:25:08.777Z,1227.00
2024-01-08T09:26:08.821Z,1248.00
2024-01-08T09:27:08.837Z,1255.00
2024-01-08T09:28:09.293Z,1255.00
2024-01-08T09:29:08.931Z,1257.00
2024-01-08T09:30:08.911Z,1257.00
2024-01-08T09:31:09.092Z,1281.00
2024-01-08T09:32:09.784Z,1324.00
2024-01-08T09:33:09.115Z,1323.00
2024-01-08T09:34:09.092Z,1319.00
2024-01-08T09:35:09.080Z,1263.00
2024-01-08T09:36:09.258Z,1259.00
2024-01-08T09:37:09.062Z,1258.00
2024-01-08T09:38:09.781Z,1255.00
2024-01-08T09:39:09.126Z,1256.00
2024-01-08T09:40:09.161Z,1263.00
2024-01-08T09:41:16.160Z,1265.00
2024-01-08T09:42:10.978Z,1272.00
2024-01-08T09:43:09.797Z,1274.00
2024-01-08T09:44:09.345Z,1287.00
2024-01-08T09:45:09.450Z,1303.00
2024-01-08T09:46:09.291Z,1310.00
2024-01-08T09:47:09.349Z,1322.00
2024-01-08T09:48:09.354Z,1343.00
2024-01-08T09:49:09.430Z,1377.00
2024-01-08T09:50:09.424Z,1406.00
2024-01-08T09:51:09.430Z,1415.00
2024-01-08T09:52:09.457Z,1405.00
2024-01-08T09:53:09.496Z,1385.00
2024-01-08T09:54:10.333Z,1387.00
2024-01-08T09:55:09.499Z,1391.00
2024-01-08T09:56:09.556Z,1458.00
2024-01-08T09:57:09.537Z,1478.00
2024-01-08T09:58:09.543Z,1495.00
2024-01-08T09:59:09.646Z,1503.00
2024-01-08T10:00:09.629Z,1506.00
2024-01-08T10:01:09.618Z,1511.00
2024-01-08T10:02:09.692Z,1510.00
2024-01-08T10:03:09.587Z,1516.00
2024-01-08T10:04:10.469Z,1593.00
2024-01-08T10:05:10.042Z,1593.00
2024-01-08T10:06:09.802Z,1608.00
2024-01-08T10:07:10.005Z,1608.00
2024-01-08T10:08:09.733Z,1626.00
2024-01-08T10:09:09.730Z,1648.00
2024-01-08T10:10:09.750Z,1713.00
2024-01-08T10:11:09.788Z,1680.00
2024-01-08T10:12:11.421Z,1690.00
2024-01-08T10:13:09.737Z,1690.00
2024-01-08T10:14:09.899Z,1747.00
2024-01-08T10:15:09.898Z,1760.00
2024-01-08T10:16:09.868Z,1796.00
2024-01-08T10:17:09.913Z,1789.00
2024-01-08T10:18:10.298Z,1801.00
2024-01-08T10:19:10.226Z,1804.00
2024-01-08T10:20:10.852Z,1812.00
2024-01-08T10:21:10.711Z,1823.00
2024-01-08T10:22:09.860Z,1838.00
2024-01-08T10:23:10.185Z,1847.00
2024-01-08T10:24:10.096Z,1876.00
2024-01-08T10:25:09.891Z,1897.00
2024-01-08T10:26:09.996Z,1902.00
2024-01-08T10:27:10.077Z,1912.00
2024-01-08T10:28:09.876Z,1927.00
2024-01-08T10:29:09.990Z,1923.00
2024-01-08T10:30:09.977Z,1933.00
2024-01-08T10:31:09.985Z,1948.00
2024-01-08T10:32:10.075Z,1962.00
2024-01-08T10:33:10.254Z,1965.00
2024-01-08T10:34:10.566Z,1984.00
2024-01-08T10:35:10.025Z,1996.00
2024-01-08T10:36:10.086Z,2008.00
2024-01-08T10:37:10.087Z,2020.00
2024-01-08T10:38:10.259Z,2025.00
2024-01-08T10:39:11.803Z,2036.00
2024-01-08T10:40:10.306Z,2062.00
2024-01-08T10:41:10.303Z,2094.00
2024-01-08T10:42:10.199Z,2088.00
2024-01-08T10:43:10.253Z,2093.00
2024-01-08T10:44:10.303Z,2081.00
2024-01-08T10:45:10.419Z,2088.00
2024-01-08T10:46:10.848Z,2154.00
2024-01-08T10:47:12.596Z,2148.00
2024-01-08T10:48:10.385Z,2141.00
2024-01-08T10:49:10.932Z,2132.00
2024-01-08T10:50:10.338Z,2113.00
2024-01-08T10:51:10.404Z,2086.00
2024-01-08T10:52:10.332Z,2074.00
2024-01-08T10:53:10.369Z,2066.00
2024-01-08T10:54:10.806Z,2053.00
2024-01-08T10:55:10.366Z,2046.00
2024-01-08T10:56:10.413Z,2046.00
2024-01-08T10:57:10.531Z,2037.00
2024-01-08T10:58:10.426Z,2029.00
2024-01-08T10:59:10.528Z,2026.00
2024-01-08T11:00:10.933Z,2019.00
2024-01-08T11:01:10.515Z,2020.00
2024-01-08T11:02:10.590Z,2014.00
2024-01-08T11:03:10.516Z,2008.00
2024-01-08T11:04:10.505Z,2004.00
2024-01-08T11:05:10.689Z,1999.00
2024-01-08T11:06:13.532Z,1993.00
2024-01-08T11:07:10.504Z,1993.00
2024-01-08T11:08:10.565Z,1989.00
2024-01-08T11:09:10.547Z,1983.00
2024-01-08T11:10:11.091Z,1977.00
2024-01-08T11:11:11.353Z,1971.00
2024-01-08T11:12:10.593Z,1968.00
2024-01-08T11:13:10.725Z,1965.00
2024-01-08T11:14:10.626Z,1960.00
2024-01-08T11:15:13.380Z,1946.00
2024-01-08T11:16:10.703Z,1896.00
2024-01-08T11:17:10.714Z,1724.00
2024-01-08T11:18:10.867Z,1612.00
2024-01-08T11:19:10.930Z,1520.00
2024-01-08T11:20:10.754Z,1478.00
2024-01-08T11:21:10.788Z,1390.00
2024-01-08T11:22:10.839Z,1358.00
2024-01-08T11:23:10.859Z,1294.00
2024-01-08T11:24:10.874Z,1270.00
2024-01-08T11:25:11.097Z,1198.00
2024-01-08T11:26:11.407Z,1156.00
2024-01-08T11:27:11.024Z,1108.00
2024-01-08T11:28:10.991Z,1101.00
2024-01-08T11:29:11.375Z,1057.00
2024-01-08T11:30:11.133Z,1044.00
2024-01-08T11:31:11.127Z,991.00
2024-01-08T11:32:11.215Z,941.00
2024-01-08T11:33:11.351Z,922.00
2024-01-08T11:34:11.294Z,907.00
2024-01-08T11:35:13.298Z,892.00
2024-01-08T11:36:11.416Z,883.00
2024-01-08T11:37:12.351Z,867.00
2024-01-08T11:38:11.442Z,833.00
2024-01-08T11:39:11.534Z,817.00
2024-01-08T11:40:12.382Z,795.00
2024-01-08T11:41:12.752Z,781.00
2024-01-08T11:42:11.790Z,782.00
2024-01-08T11:43:11.798Z,774.00
2024-01-08T11:44:12.436Z,773.00
2024-01-08T11:45:12.350Z,776.00
2024-01-08T11:46:12.315Z,783.00
2024-01-08T11:47:13.282Z,779.00
2024-01-08T11:48:13.045Z,781.00
2024-01-08T11:49:12.384Z,776.00
2024-01-08T11:50:13.220Z,774.00
2024-01-08T11:51:12.301Z,765.00
2024-01-08T11:52:12.415Z,761.00
2024-01-08T11:53:12.441Z,748.00
2024-01-08T11:54:12.240Z,739.00
2024-01-08T11:55:12.296Z,734.00
2024-01-08T11:56:12.337Z,725.00
2024-01-08T11:57:12.386Z,697.00
2024-01-08T11:58:13.313Z,697.00
2024-01-08T11:59:12.525Z,694.00
2024-01-08T12:00:12.678Z,677.00
2024-01-08T12:01:12.640Z,673.00
2024-01-08T12:02:12.737Z,666.00
2024-01-08T12:03:12.792Z,667.00
2024-01-08T12:04:12.781Z,638.00
2024-01-08T12:05:13.030Z,625.00
2024-01-08T12:06:13.226Z,615.00
2024-01-08T12:07:12.992Z,607.00
2024-01-08T12:08:13.185Z,606.00
2024-01-08T12:09:13.092Z,607.00
2024-01-08T12:10:13.274Z,599.00
2024-01-08T12:11:13.276Z,593.00
2024-01-08T12:12:13.307Z,571.00
2024-01-08T12:13:13.406Z,563.00
2024-01-08T12:14:13.516Z,568.00
2024-01-08T12:15:13.603Z,553.00
2024-01-08T12:16:13.706Z,555.00
2024-01-08T12:17:13.786Z,552.00
2024-01-08T12:18:13.923Z,548.00
2024-01-08T12:19:15.897Z,531.00
2024-01-08T12:20:14.048Z,529.00
2024-01-08T12:21:14.133Z,527.00
2024-01-08T12:22:14.204Z,525.00
2024-01-08T12:23:15.164Z,525.00
2024-01-08T12:24:14.503Z,524.00
2024-01-08T12:25:14.632Z,525.00
2024-01-08T12:26:14.775Z,522.00
2024-01-08T12:27:14.858Z,522.00
2024-01-08T12:28:15.387Z,525.00
2024-01-08T12:29:54.368Z,531.00
2024-01-08T12:30:15.296Z,531.00